Time;durP1;ratioP1;P1;durP2;ratioP2;P2;SDS_P1;SDS_P2;PMS_P1;PMS_P2;Temp;Humidity;BMP_temperature;BMP_pressure;BME280_temperature;BME280_humidity;BME280_pressure;Samples;Min_cycle;Max_cycle;Signal;HPM_P1;HPM_P2
2022/08/06 00:02:12;;;;;;;17.92;4.57;;;;;;;12.06;100.00;102409.34;5045509;28;20071;-66
2022/08/06 00:04:38;;;;;;;14.80;3.97;;;;;;;11.98;100.00;102410.06;5042938;28;20549;-67
2022/08/06 00:07:03;;;;;;;14.25;4.22;;;;;;;11.80;100.00;102417.56;5044412;28;20041;-67
2022/08/06 00:09:30;;;;;;;18.58;4.45;;;;;;;11.63;100.00;102409.19;5039767;28;20052;-66
2022/08/06 00:11:57;;;;;;;17.65;4.63;;;;;;;11.54;100.00;102424.84;5041122;28;20038;-67
2022/08/06 00:14:22;;;;;;;15.57;4.25;;;;;;;11.54;100.00;102414.25;5038796;28;20026;-65
2022/08/06 00:16:48;;;;;;;19.75;4.53;;;;;;;11.50;100.00;102418.56;5043923;28;20400;-65
2022/08/06 00:19:13;;;;;;;13.35;4.07;;;;;;;11.54;100.00;102414.25;5045256;28;20032;-66
2022/08/06 00:21:38;;;;;;;15.30;4.30;;;;;;;11.42;100.00;102421.03;5044328;28;20028;-66
2022/08/06 00:24:04;;;;;;;16.10;4.40;;;;;;;11.38;100.00;102429.75;5042278;28;20025;-64
2022/08/06 00:26:29;;;;;;;17.45;4.15;;;;;;;11.30;100.00;102420.69;5045502;28;20040;-64
2022/08/06 00:28:55;;;;;;;14.60;4.03;;;;;;;11.24;100.00;102423.19;5041942;28;20121;-66
2022/08/06 00:31:20;;;;;;;13.85;4.07;;;;;;;11.13;100.00;102434.38;5044164;28;20498;-66
2022/08/06 00:33:46;;;;;;;16.85;4.20;;;;;;;11.12;100.00;102424.63;5043224;28;20100;-66
2022/08/06 00:36:11;;;;;;;17.45;4.57;;;;;;;11.10;100.00;102434.28;5043121;28;20595;-66
2022/08/06 00:38:36;;;;;;;13.25;3.92;;;;;;;11.15;100.00;102440.63;5044194;28;20068;-66
2022/08/06 00:41:03;;;;;;;16.27;4.50;;;;;;;11.09;100.00;102432.50;5041624;28;20048;-66
2022/08/06 00:43:28;;;;;;;14.90;4.28;;;;;;;11.06;100.00;102437.72;5045092;28;20455;-66
2022/08/06 00:45:54;;;;;;;15.40;4.40;;;;;;;10.95;100.00;102437.41;5041704;28;20022;-67
2022/08/06 00:48:19;;;;;;;15.82;4.18;;;;;;;10.91;100.00;102437.31;5043820;28;20103;-66
2022/08/06 00:50:44;;;;;;;16.00;4.20;;;;;;;10.75;100.00;102442.13;5042993;28;20029;-67
2022/08/06 00:53:10;;;;;;;16.67;4.57;;;;;;;10.67;100.00;102443.66;5042832;28;20029;-66
2022/08/06 00:55:35;;;;;;;14.25;4.30;;;;;;;10.68;100.00;102439.28;5044283;28;20033;-64
2022/08/06 00:58:00;;;;;;;15.85;4.47;;;;;;;10.63;100.00;102447.09;5041516;28;20459;-66
2022/08/06 01:00:26;;;;;;;16.60;4.65;;;;;;;10.74;100.00;102450.91;5044804;28;20017;-67
2022/08/06 01:02:52;;;;;;;18.05;4.80;;;;;;;10.82;100.00;102453.81;5041890;28;20033;-65
2022/08/06 01:05:17;;;;;;;14.32;4.32;;;;;;;10.85;100.00;102455.63;5043595;28;20021;-66
2022/08/06 01:07:43;;;;;;;16.85;4.35;;;;;;;10.85;100.00;102458.25;5042919;28;20025;-64
2022/08/06 01:10:08;;;;;;;16.40;4.50;;;;;;;10.87;100.00;102456.56;5042301;28;20168;-60
2022/08/06 01:12:34;;;;;;;16.40;4.72;;;;;;;10.77;100.00;102466.00;5044006;28;20025;-62
2022/08/06 01:14:59;;;;;;;17.80;5.03;;;;;;;10.84;100.00;102475.91;5041425;28;20052;-64
2022/08/06 01:17:36;;;;;;;17.80;5.25;;;;;;;10.76;100.00;102474.75;5044614;28;20099;-66
2022/08/06 01:20:35;;;;;;;16.40;4.82;;;;;;;10.86;100.00;102475.94;5036281;28;20484;-65
2022/08/06 01:23:34;;;;;;;17.90;5.20;;;;;;;10.84;100.00;102470.59;5037662;28;20416;-66
2022/08/06 01:26:05;;;;;;;16.73;4.95;;;;;;;10.90;100.00;102473.41;5037086;28;20040;-66
2022/08/06 01:28:34;;;;;;;18.58;5.28;;;;;;;10.85;100.00;102482.06;5037747;28;20028;-63
2022/08/06 01:31:08;;;;;;;15.18;4.47;;;;;;;10.85;100.00;102482.06;5036937;28;20403;-63
2022/08/06 01:33:40;;;;;;;16.42;4.85;;;;;;;10.85;100.00;102476.78;5038068;28;20030;-65
2022/08/06 01:36:11;;;;;;;15.23;4.75;;;;;;;10.80;100.00;102485.50;5043561;28;20021;-63
2022/08/06 01:38:44;;;;;;;16.00;4.95;;;;;;;10.70;100.00;102478.13;5041659;28;20036;-66
2022/08/06 01:41:13;;;;;;;17.55;4.68;;;;;;;10.67;100.00;102482.44;5042854;28;20454;-66
2022/08/06 01:43:41;;;;;;;17.63;4.97;;;;;;;10.51;100.00;102471.38;5041852;28;20045;-64
2022/08/06 01:46:09;;;;;;;16.02;4.80;;;;;;;10.40;100.00;102479.00;5043660;28;20162;-65
2022/08/06 01:48:36;;;;;;;18.42;4.93;;;;;;;10.31;100.00;102478.69;5041259;28;20056;-62
2022/08/06 01:51:04;;;;;;;16.75;5.00;;;;;;;10.38;100.00;102483.34;5043853;28;20029;-64
2022/08/06 01:53:33;;;;;;;16.80;4.82;;;;;;;10.41;100.00;102482.53;5031434;28;20041;-64
2022/08/06 01:56:00;;;;;;;15.43;4.88;;;;;;;10.51;100.00;102481.97;5038956;28;20481;-62
2022/08/06 01:58:33;;;;;;;15.98;4.70;;;;;;;10.45;100.00;102477.38;5042541;28;20032;-62
2022/08/06 02:01:03;;;;;;;15.38;4.70;;;;;;;10.36;100.00;102486.78;5038199;28;20419;-62
2022/08/06 02:03:35;;;;;;;18.20;4.70;;;;;;;10.43;100.00;102494.06;5041503;28;20022;-64
2022/08/06 02:06:01;;;;;;;19.85;5.05;;;;;;;10.56;100.00;102488.31;5043080;28;20040;-66
2022/08/06 02:08:31;;;;;;;16.67;4.82;;;;;;;10.56;100.00;102487.41;5041894;28;20430;-66
2022/08/06 02:10:59;;;;;;;16.90;5.00;;;;;;;10.57;100.00;102483.91;5042482;28;20029;-66
2022/08/06 02:13:26;;;;;;;17.92;5.07;;;;;;;10.50;100.00;102492.50;5042268;28;20025;-60
2022/08/06 02:15:53;;;;;;;18.55;5.13;;;;;;;10.53;100.00;102489.94;5041744;28;20484;-65
2022/08/06 02:18:22;;;;;;;17.10;5.10;;;;;;;10.37;100.00;102489.47;5042658;28;20537;-61
2022/08/06 02:20:51;;;;;;;14.52;4.50;;;;;;;10.37;100.00;102484.19;5041167;28;20044;-65
2022/08/06 02:23:19;;;;;;;17.50;5.30;;;;;;;10.34;100.00;102488.47;5043112;28;20104;-66
2022/08/06 02:25:47;;;;;;;16.02;4.80;;;;;;;10.32;100.00;102495.44;5040683;28;20022;-66
2022/08/06 02:28:14;;;;;;;17.92;5.20;;;;;;;10.28;100.00;102497.06;5043911;28;20375;-63
2022/08/06 02:30:43;;;;;;;17.45;5.10;;;;;;;10.23;100.00;102494.28;5040051;28;20032;-60
2022/08/06 02:33:11;;;;;;;17.00;5.10;;;;;;;10.10;100.00;102486.81;5036419;28;20483;-64
2022/08/06 02:35:42;;;;;;;15.43;4.72;;;;;;;10.05;100.00;102491.94;5044116;28;20379;-63
2022/08/06 02:38:13;;;;;;;16.02;5.10;;;;;;;10.09;100.00;102485.94;5039228;28;20414;-61
2022/08/06 02:40:52;;;;;;;18.25;5.20;;;;;;;10.13;100.00;102486.91;5039835;28;20045;-60
2022/08/06 02:43:35;;;;;;;16.58;4.70;;;;;;;10.07;100.00;102495.53;5042237;28;20638;-62
2022/08/06 02:46:13;;;;;;;17.25;4.97;;;;;;;10.05;100.00;102491.94;5044484;28;20024;-62
2022/08/06 02:48:48;;;;;;;17.10;5.13;;;;;;;10.01;100.00;102492.69;5040112;28;20357;-62
2022/08/06 02:51:18;;;;;;;14.63;4.75;;;;;;;9.95;100.00;102487.22;5041014;28;20029;-62
2022/08/06 02:54:10;;;;;;;17.90;5.30;;;;;;;9.87;100.00;102496.63;5047052;28;20051;-62
2022/08/06 02:56:40;;;;;;;17.10;5.07;;;;;;;9.85;100.00;102495.69;5024973;28;20033;-62
2022/08/06 02:59:08;;;;;;;17.55;5.00;;;;;;;9.79;100.00;102492.84;5021554;28;20077;-66
2022/08/06 03:01:41;;;;;;;17.10;4.85;;;;;;;9.75;100.00;102495.34;5024433;28;20135;-63
2022/08/06 03:04:08;;;;;;;16.90;5.00;;;;;;;9.69;100.00;102494.28;5021340;28;20160;-64
2022/08/06 03:06:37;;;;;;;16.35;5.10;;;;;;;9.61;100.00;102494.00;5024498;28;20032;-62
2022/08/06 03:09:05;;;;;;;17.60;5.30;;;;;;;9.54;100.00;102499.94;5021726;28;20496;-61
2022/08/06 03:11:34;;;;;;;17.20;5.20;;;;;;;9.54;100.00;102499.94;5023757;28;20388;-62
2022/08/06 03:14:06;;;;;;;14.73;4.88;;;;;;;9.46;100.00;102497.00;5022267;28;20104;-63
2022/08/06 03:16:36;;;;;;;16.83;4.97;;;;;;;9.37;100.00;102497.56;5023982;28;20050;-64
2022/08/06 03:19:03;;;;;;;15.85;5.00;;;;;;;9.31;100.00;102497.34;5021726;28;20104;-65
2022/08/06 03:21:30;;;;;;;16.02;4.80;;;;;;;9.26;100.00;102504.19;5023205;28;20049;-61
2022/08/06 03:23:58;;;;;;;18.60;5.50;;;;;;;9.23;100.00;102499.72;5022957;28;20087;-62
2022/08/06 03:26:25;;;;;;;16.38;5.43;;;;;;;9.18;100.00;102495.13;5021004;28;20054;-65
2022/08/06 03:28:53;;;;;;;18.45;5.80;;;;;;;9.17;100.00;102507.41;5024243;28;20183;-61
2022/08/06 03:31:20;;;;;;;17.52;5.10;;;;;;;9.20;100.00;102517.16;5016832;28;20095;-61
2022/08/06 03:33:46;;;;;;;17.15;5.60;;;;;;;9.18;100.00;102510.94;5034025;28;20159;-61
2022/08/06 03:36:13;;;;;;;17.83;5.50;;;;;;;9.19;100.00;102512.75;5045380;28;20028;-60
2022/08/06 03:38:43;;;;;;;16.23;5.20;;;;;;;9.23;100.00;102517.28;5044213;28;20033;-65
2022/08/06 03:41:09;;;;;;;18.52;5.10;;;;;;;9.21;100.00;102517.22;5044817;28;20053;-61
2022/08/06 03:43:35;;;;;;;16.75;5.10;;;;;;;9.22;100.00;102524.31;5044218;28;20021;-64
2022/08/06 03:46:03;;;;;;;18.83;5.70;;;;;;;9.21;100.00;102522.50;5044041;28;20036;-64
2022/08/06 03:48:34;;;;;;;16.15;5.00;;;;;;;9.11;100.00;102522.13;5044842;28;20039;-65
2022/08/06 03:51:03;;;;;;;16.65;5.30;;;;;;;9.13;100.00;102523.97;5043366;28;20025;-63
2022/08/06 03:53:34;;;;;;;17.42;5.25;;;;;;;9.05;100.00;102523.69;5044912;28;20021;-62
2022/08/06 03:56:02;;;;;;;16.60;4.88;;;;;;;9.00;100.00;102533.16;5043956;28;20032;-64
2022/08/06 03:58:28;;;;;;;15.93;5.30;;;;;;;9.04;100.00;102531.53;5044845;28;20040;-64
2022/08/06 04:00:59;;;;;;;17.58;5.32;;;;;;;9.07;100.00;102529.00;5042868;28;20030;-62
2022/08/06 04:03:25;;;;;;;17.30;5.80;;;;;;;9.12;100.00;102531.84;5045146;28;20056;-66
2022/08/06 04:05:51;;;;;;;17.40;5.68;;;;;;;9.19;100.00;102544.44;5042180;28;20072;-65
2022/08/06 04:08:18;;;;;;;17.85;6.03;;;;;;;9.20;100.00;102541.84;5045464;28;20032;-65
2022/08/06 04:10:46;;;;;;;18.42;5.72;;;;;;;9.11;100.00;102540.59;5042502;28;20026;-66
2022/08/06 04:13:17;;;;;;;19.17;5.80;;;;;;;9.06;100.00;102541.31;5044902;28;20037;-66
2022/08/06 04:15:44;;;;;;;19.02;6.65;;;;;;;9.05;100.00;102547.41;5042430;28;20018;-62
2022/08/06 04:18:12;;;;;;;19.48;6.82;;;;;;;9.10;100.00;102541.41;5044358;28;20033;-65
2022/08/06 04:20:41;;;;;;;18.80;6.05;;;;;;;9.14;100.00;102548.63;5043002;28;20510;-65
2022/08/06 04:23:07;;;;;;;19.30;6.38;;;;;;;9.15;100.00;102542.50;5044089;28;20029;-66
2022/08/06 04:25:36;;;;;;;18.25;6.05;;;;;;;9.15;100.00;102553.06;5043954;28;20024;-66
2022/08/06 04:28:03;;;;;;;20.77;6.65;;;;;;;9.18;100.00;102559.34;5043032;28;20475;-66
2022/08/06 04:30:31;;;;;;;20.52;6.85;;;;;;;9.17;100.00;102564.56;5043965;28;20483;-66
2022/08/06 04:32:56;;;;;;;20.35;6.63;;;;;;;9.17;100.00;102564.56;5042567;28;20435;-66
2022/08/06 04:35:22;;;;;;;19.80;6.05;;;;;;;9.24;100.00;102556.91;5045004;28;20057;-64
2022/08/06 04:37:48;;;;;;;19.30;6.32;;;;;;;9.20;100.00;102560.31;5037687;28;20523;-66
2022/08/06 04:40:14;;;;;;;19.08;6.70;;;;;;;9.19;100.00;102554.97;5044491;28;20053;-64
2022/08/06 04:42:40;;;;;;;18.38;6.35;;;;;;;9.19;100.00;102560.25;5042456;28;20029;-63
2022/08/06 04:45:08;;;;;;;18.50;6.30;;;;;;;9.09;100.00;102559.00;5043291;28;20021;-66
2022/08/06 04:47:35;;;;;;;18.35;5.90;;;;;;;9.15;100.00;102564.50;5043270;28;20115;-65
2022/08/06 04:50:00;;;;;;;18.52;6.32;;;;;;;9.25;100.00;102569.28;5042456;28;20021;-66
2022/08/06 04:52:28;;;;;;;18.02;6.13;;;;;;;9.35;100.00;102567.88;5042797;28;20045;-63
2022/08/06 04:54:54;;;;;;;20.70;6.45;;;;;;;9.38;100.00;102577.66;5041731;28;20069;-63
2022/08/06 04:57:19;;;;;;;21.55;6.88;;;;;;;9.38;100.00;102578.56;5044609;28;20059;-60
2022/08/06 04:59:44;;;;;;;20.33;6.95;;;;;;;9.39;100.00;102575.09;5041044;28;20021;-60
2022/08/06 05:02:10;;;;;;;21.85;7.28;;;;;;;9.43;100.00;102584.88;5043664;28;20030;-62
2022/08/06 05:04:37;;;;;;;19.83;6.90;;;;;;;9.48;100.00;102578.88;5042757;28;20471;-62
2022/08/06 05:07:13;;;;;;;21.73;7.38;;;;;;;9.58;100.00;102584.56;5042667;28;20036;-63
2022/08/06 05:09:39;;;;;;;21.38;7.35;;;;;;;9.62;100.00;102579.41;5042104;28;20025;-61
2022/08/06 05:12:11;;;;;;;21.63;7.97;;;;;;;9.69;100.00;102579.66;5043104;28;20022;-62
2022/08/06 05:15:06;;;;;;;22.48;8.30;;;;;;;9.75;100.00;102585.16;5042629;28;20028;-64
2022/08/06 05:17:39;;;;;;;22.38;7.90;;;;;;;9.87;100.00;102587.34;5040132;28;20037;-62
2022/08/06 05:20:20;;;;;;;21.83;7.60;;;;;;;10.03;100.00;102590.50;5042987;28;20077;-63
2022/08/06 05:22:52;;;;;;;20.05;7.22;;;;;;;10.10;100.00;102601.31;5044244;28;20020;-62
2022/08/06 05:25:18;;;;;;;21.67;7.82;;;;;;;10.17;100.00;102594.53;5036881;28;20030;-63
2022/08/06 05:27:43;;;;;;;21.70;7.88;;;;;;;10.21;100.00;102593.78;5044040;28;20020;-61
2022/08/06 05:30:09;;;;;;;21.25;7.78;;;;;;;10.29;100.00;102596.66;5042026;28;20024;-61
2022/08/06 05:32:46;;;;;;;21.15;7.70;;;;;;;10.42;100.00;102595.38;5042429;28;20026;-60
2022/08/06 05:35:12;;;;;;;20.55;8.07;;;;;;;10.50;100.00;102607.09;5041846;28;20024;-62
2022/08/06 05:37:38;;;;;;;20.95;8.55;;;;;;;10.57;100.00;102605.53;5042847;28;20072;-63
2022/08/06 05:40:04;;;;;;;22.48;8.65;;;;;;;10.67;100.00;102607.63;5042293;28;20449;-61
2022/08/06 05:42:30;;;;;;;28.63;8.80;;;;;;;10.77;100.00;102609.72;5041856;28;20025;-64
2022/08/06 05:44:55;;;;;;;23.38;9.25;;;;;;;10.85;100.00;102606.41;5043985;28;20028;-60
2022/08/06 05:47:24;;;;;;;21.00;8.88;;;;;;;10.88;100.00;102610.06;5040657;28;20380;-62
2022/08/06 05:50:06;;;;;;;22.42;8.57;;;;;;;10.97;100.00;102602.41;5037108;28;20026;-61
2022/08/06 05:52:41;;;;;;;21.85;8.65;;;;;;;11.08;100.00;102616.00;5040103;28;20029;-67
2022/08/06 05:55:29;;;;;;;23.58;8.60;;;;;;;11.20;100.00;102615.44;5042297;28;20037;-67
2022/08/06 05:57:59;;;;;;;22.25;8.85;;;;;;;11.29;100.00;102614.81;5038217;28;20104;-67
2022/08/06 06:00:28;;;;;;;21.55;8.30;;;;;;;11.40;100.00;102607.19;5043849;28;20452;-67
2022/08/06 06:02:56;;;;;;;22.98;9.50;;;;;;;11.41;100.00;102615.16;5040544;28;20040;-66
2022/08/06 06:05:23;;;;;;;23.30;9.20;;;;;;;11.53;100.00;102619.91;5042752;28;20056;-66
2022/08/06 06:07:49;;;;;;;23.25;9.20;;;;;;;11.61;100.00;102617.50;5032285;28;20084;-67
2022/08/06 06:10:16;;;;;;;21.85;8.70;;;;;;;11.69;100.00;102616.88;5039812;28;20033;-67
2022/08/06 06:12:43;;;;;;;23.23;9.05;;;;;;;11.84;100.00;102620.81;5044987;28;20021;-67
2022/08/06 06:15:11;;;;;;;23.35;8.60;;;;;;;11.96;100.00;102622.91;5042567;28;20028;-67
2022/08/06 06:17:55;;;;;;;22.23;7.35;;;;;;;12.07;100.00;102625.84;5044295;28;20025;-71
2022/08/06 06:20:41;;;;;;;22.10;6.97;;;;;;;12.19;100.00;102626.19;5045193;28;20486;-62
2022/08/06 06:23:13;;;;;;;20.52;6.80;;;;;;;12.30;100.00;102615.84;5041875;28;20036;-62
2022/08/06 06:26:01;;;;;;;19.55;6.47;;;;;;;12.38;100.00;102617.81;5046591;28;20032;-62
2022/08/06 06:29:02;;;;;;;20.50;6.20;;;;;;;12.51;100.00;102618.13;5046104;28;20443;-69
2022/08/06 06:31:33;;;;;;;19.33;5.80;;;;;;;12.64;100.00;102621.97;5005485;28;20132;-69
2022/08/06 06:34:01;;;;;;;19.85;5.80;;;;;;;12.76;100.00;102624.91;4998326;28;20205;-69
2022/08/06 06:36:42;;;;;;;16.85;5.40;;;;;;;12.87;100.00;102625.16;5001554;28;20046;-69
2022/08/06 06:39:39;;;;;;;18.95;5.40;;;;;;;12.97;100.00;102627.16;5002218;28;20034;-69
2022/08/06 06:42:13;;;;;;;18.63;5.20;;;;;;;13.13;100.00;102632.81;5001331;28;20050;-69
2022/08/06 06:44:52;;;;;;;17.67;5.05;;;;;;;13.22;100.00;102628.63;5002380;28;20030;-68
2022/08/06 06:47:33;;;;;;;19.45;5.40;;;;;;;13.33;100.00;102625.31;5003574;28;20030;-68
2022/08/06 06:50:07;;;;;;;14.52;4.35;;;;;;;13.45;100.00;102641.50;5004916;28;20058;-69
2022/08/06 06:52:39;;;;;;;16.98;4.45;;;;;;;13.60;100.00;102641.84;4997908;28;20041;-65
2022/08/06 06:55:11;;;;;;;17.15;4.43;;;;;;;13.72;100.00;102641.19;5001929;28;20038;-65
2022/08/06 06:57:42;;;;;;;13.88;4.50;;;;;;;13.86;100.00;102640.56;5001978;28;20034;-64
2022/08/06 07:00:14;;;;;;;18.42;4.00;;;;;;;13.98;100.00;102643.47;5001772;28;20503;-65
2022/08/06 07:02:41;;;;;;;15.07;3.60;;;;;;;14.07;100.00;102638.31;5004612;28;20084;-64
2022/08/06 07:05:09;;;;;;;16.08;3.60;;;;;;;14.19;100.00;102642.94;4999197;28;20034;-64
2022/08/06 07:07:39;;;;;;;12.40;3.55;;;;;;;14.29;100.00;102641.34;5010660;28;20037;-60
2022/08/06 07:10:07;;;;;;;13.57;3.58;;;;;;;14.37;100.00;102636.16;5035034;28;20038;-61
2022/08/06 07:12:34;;;;;;;15.95;3.80;;;;;;;14.45;100.00;102635.41;5032958;28;20033;-60
2022/08/06 07:15:06;;;;;;;16.02;3.50;;;;;;;14.53;100.00;102646.16;5035854;28;20538;-60
2022/08/06 07:17:34;;;;;;;12.38;3.22;;;;;;;14.59;100.00;102648.03;5029754;28;20025;-62
2022/08/06 07:20:03;;;;;;;15.27;3.78;;;;;;;14.69;100.00;102647.34;5036737;28;20028;-61
2022/08/06 07:22:29;;;;;;;15.57;3.47;;;;;;;14.79;100.00;102653.72;5036471;28;20416;-60
2022/08/06 07:24:59;;;;;;;15.50;3.97;;;;;;;14.84;100.00;102651.13;5036218;28;20033;-59
2022/08/06 07:27:32;;;;;;;13.93;4.00;;;;;;;14.89;100.00;102653.00;5033004;28;20076;-60
2022/08/06 07:29:58;;;;;;;16.45;4.30;;;;;;;14.99;100.00;102660.25;5032875;28;20025;-61
2022/08/06 07:32:24;;;;;;;12.75;3.47;;;;;;;15.04;100.00;102656.75;5033483;28;20017;-60
2022/08/06 07:34:50;;;;;;;12.90;3.17;;;;;;;15.13;100.00;102665.78;5034045;28;20021;-59
2022/08/06 07:37:20;;;;;;;13.02;3.00;;;;;;;15.19;100.00;102662.31;5034243;28;20025;-60
2022/08/06 07:39:47;;;;;;;13.27;3.45;;;;;;;15.29;100.00;102666.88;5033094;28;20030;-60
2022/08/06 07:42:15;;;;;;;12.80;3.67;;;;;;;15.38;100.00;102671.44;5033788;28;20534;-60
2022/08/06 07:44:50;;;;;;;14.27;3.90;;;;;;;15.44;100.00;102667.97;5031381;28;20022;-60
2022/08/06 07:47:21;;;;;;;14.00;3.55;;;;;;;15.57;100.00;102674.38;5033296;28;20033;-60
2022/08/06 07:49:51;;;;;;;12.45;3.20;;;;;;;15.66;100.00;102679.78;5033109;28;20056;-60
2022/08/06 07:52:18;;;;;;;14.95;3.03;;;;;;;15.73;100.00;102671.00;5032543;28;20500;-64
2022/08/06 07:54:44;;;;;;;11.00;2.65;;;;;;;15.80;100.00;102671.97;5031992;28;20026;-61
2022/08/06 07:57:10;;;;;;;11.35;2.63;;;;;;;15.88;100.00;102674.75;5033170;28;20033;-63
2022/08/06 07:59:36;;;;;;;13.10;2.60;;;;;;;15.98;100.00;102673.97;5032580;28;20080;-61
2022/08/06 08:02:04;;;;;;;15.02;2.58;;;;;;;16.02;100.00;102667.81;5034152;28;20096;-64
2022/08/06 08:07:15;;;;;;;10.00;2.20;;;;;;;16.27;100.00;102674.28;5042719;28;20129;-64
2022/08/06 08:09:45;;;;;;;10.20;2.20;;;;;;;16.47;100.00;102687.81;5044880;28;20030;-65
2022/08/06 08:12:16;;;;;;;9.05;2.20;;;;;;;16.54;100.00;102688.72;5042911;28;20047;-64
2022/08/06 08:14:47;;;;;;;10.25;2.17;;;;;;;16.59;100.00;102676.34;5045004;28;20055;-64
2022/08/06 08:17:14;;;;;;;8.13;2.20;;;;;;;16.53;100.00;102684.28;5042392;28;20035;-63
2022/08/06 08:19:40;;;;;;;10.57;2.33;;;;;;;16.58;100.00;102679.00;5044515;28;20358;-68
2022/08/06 08:22:09;;;;;;;8.60;2.40;;;;;;;16.70;100.00;102680.00;5043517;28;20052;-68
2022/08/06 08:24:35;;;;;;;9.63;2.30;;;;;;;16.81;98.92;102685.41;5043984;28;20031;-67
2022/08/06 08:27:03;;;;;;;8.63;2.20;;;;;;;17.08;99.89;102687.41;5044094;28;20017;-69
2022/08/06 08:29:28;;;;;;;8.55;2.22;;;;;;;17.56;99.72;102681.41;5042734;28;20032;-67
2022/08/06 08:31:56;;;;;;;9.77;2.20;;;;;;;18.49;92.65;102687.03;5045197;28;20033;-68
2022/08/06 08:34:21;;;;;;;10.40;2.10;;;;;;;19.46;86.08;102698.50;5040924;28;20032;-68
2022/08/06 08:36:47;;;;;;;12.10;2.33;;;;;;;20.40;80.03;102691.75;5045484;28;20025;-68
2022/08/06 08:39:14;;;;;;;8.90;2.08;;;;;;;21.35;72.62;102681.03;5041942;28;20018;-68
2022/08/06 08:41:43;;;;;;;9.00;2.10;;;;;;;21.94;71.67;102684.78;5043842;28;20078;-68
2022/08/06 08:44:09;;;;;;;10.32;2.20;;;;;;;22.10;66.57;102689.94;5042646;28;20100;-68
2022/08/06 08:46:40;;;;;;;9.30;2.10;;;;;;;21.45;67.54;102682.72;5043420;28;20370;-68
2022/08/06 08:49:07;;;;;;;7.82;2.00;;;;;;;21.01;67.50;102684.09;5043017;28;20357;-68
2022/08/06 08:51:36;;;;;;;8.38;2.20;;;;;;;20.86;70.40;102685.13;5042807;28;20033;-69
2022/08/06 08:54:05;;;;;;;7.70;2.17;;;;;;;21.07;70.74;102687.63;5043747;28;20025;-69
2022/08/06 08:56:31;;;;;;;10.95;2.20;;;;;;;21.29;69.92;102686.47;5042483;28;20021;-68
2022/08/06 08:58:57;;;;;;;9.90;2.08;;;;;;;21.32;66.72;102683.75;5044128;28;20391;-68
2022/08/06 09:01:22;;;;;;;7.65;2.00;;;;;;;20.69;67.74;102690.66;5041693;28;20017;-68
2022/08/06 09:03:48;;;;;;;8.30;2.15;;;;;;;20.35;69.50;102688.22;5044550;28;20491;-69
2022/08/06 09:06:13;;;;;;;9.35;2.17;;;;;;;20.15;70.93;102683.00;5041800;28;20025;-68
2022/08/06 09:08:40;;;;;;;9.40;2.10;;;;;;;19.87;71.06;102687.66;5043785;28;20047;-68
2022/08/06 09:11:05;;;;;;;7.60;2.00;;;;;;;19.79;73.01;102701.09;5042460;28;20032;-68
2022/08/06 09:13:31;;;;;;;8.40;2.00;;;;;;;19.65;70.33;102696.66;5042171;28;20051;-69
2022/08/06 09:15:57;;;;;;;6.50;2.00;;;;;;;19.34;69.13;102703.94;5043945;28;20049;-68
2022/08/06 09:18:25;;;;;;;6.85;1.95;;;;;;;19.16;69.24;102700.41;5040908;28;20025;-68
2022/08/06 09:20:52;;;;;;;8.82;1.90;;;;;;;19.15;70.03;102706.66;5044260;28;20084;-67
2022/08/06 09:23:18;;;;;;;4.45;1.70;;;;;;;19.60;68.21;102702.94;5037326;28;20027;-68
2022/08/06 09:25:44;;;;;;;8.93;2.00;;;;;;;20.01;67.35;102696.53;5043726;28;20547;-67
2022/08/06 09:28:28;;;;;;;7.80;1.90;;;;;;;20.63;66.93;102696.94;5041715;28;20058;-68
2022/08/06 09:31:07;;;;;;;9.77;1.90;;;;;;;21.19;63.34;102693.78;5037489;28;20036;-65
2022/08/06 09:33:36;;;;;;;8.50;2.17;;;;;;;21.95;60.33;102699.13;5040406;28;20044;-64
2022/08/06 09:36:20;;;;;;;7.32;2.10;;;;;;;21.78;63.33;102704.72;5040824;28;20021;-66
2022/08/06 09:38:57;;;;;;;6.70;1.95;;;;;;;21.91;56.05;102697.38;5041785;28;20025;-64
2022/08/06 09:41:25;;;;;;;7.28;1.83;;;;;;;23.90;42.79;102707.38;5042988;28;20128;-63
2022/08/06 09:43:53;;;;;;;4.78;1.80;;;;;;;24.84;38.86;102701.50;5040906;28;20083;-66
2022/08/06 09:46:36;;;;;;;4.68;1.88;;;;;;;25.28;39.05;102701.22;5044584;28;20029;-64
2022/08/06 09:49:02;;;;;;;5.53;1.80;;;;;;;25.69;36.91;102707.28;5042104;28;20025;-63
2022/08/06 09:51:29;;;;;;;5.15;1.77;;;;;;;26.04;36.74;102708.94;5048069;28;20055;-64
2022/08/06 09:53:57;;;;;;;6.75;1.90;;;;;;;26.35;34.03;102713.34;5044751;28;20021;-62
2022/08/06 09:56:23;;;;;;;8.38;2.05;;;;;;;26.67;32.60;102700.53;5047688;28;20498;-66
2022/08/06 09:58:49;;;;;;;7.30;1.83;;;;;;;27.85;32.63;102709.88;5045558;28;20035;-63
2022/08/06 10:01:20;;;;;;;5.28;1.80;;;;;;;28.50;31.11;102709.03;5046810;28;20414;-66
2022/08/06 10:03:46;;;;;;;8.93;1.90;;;;;;;29.01;28.71;102703.25;5046168;28;20061;-65
2022/08/06 10:06:20;;;;;;;4.93;1.88;;;;;;;27.81;29.04;102714.50;5046236;28;20407;-63
2022/08/06 10:08:47;;;;;;;5.35;1.60;;;;;;;26.47;29.85;102706.63;5046053;28;20025;-65
2022/08/06 10:11:13;;;;;;;4.00;1.55;;;;;;;26.99;30.02;102703.09;5046032;28;20120;-63
2022/08/06 10:13:38;;;;;;;4.80;1.90;;;;;;;28.24;28.92;102701.97;5046985;28;20064;-66
2022/08/06 10:16:17;;;;;;;4.72;1.40;;;;;;;29.71;28.28;102699.13;5045008;28;20345;-65
2022/08/06 10:18:46;;;;;;;4.32;1.70;;;;;;;29.73;24.99;102704.50;5045967;28;20051;-68
2022/08/06 10:21:16;;;;;;;4.85;1.58;;;;;;;29.97;25.20;102704.28;5046088;28;20079;-68
2022/08/06 10:23:45;;;;;;;5.80;1.70;;;;;;;30.36;25.32;102697.81;5046118;28;20025;-65
2022/08/06 10:26:12;;;;;;;3.80;1.50;;;;;;;29.72;25.62;102694.53;5045435;28;20072;-66
2022/08/06 10:28:40;;;;;;;5.60;1.80;;;;;;;29.80;26.31;102689.63;5046884;28;20384;-68
2022/08/06 10:31:08;;;;;;;4.80;1.83;;;;;;;29.62;26.08;102694.13;5044652;28;20033;-64
2022/08/06 10:33:43;;;;;;;5.25;1.60;;;;;;;29.39;26.18;102689.75;5047133;28;20136;-68
2022/08/06 10:36:14;;;;;;;5.43;1.50;;;;;;;30.64;24.12;102691.88;5044720;28;20022;-64
2022/08/06 10:38:46;;;;;;;5.15;1.50;;;;;;;31.28;23.16;102687.56;5046657;28;20017;-68
2022/08/06 10:41:12;;;;;;;;;;;;;;;32.76;24.85;102682.78;5045655;28;20508;-68
2022/08/06 10:43:38;;;;;;;5.15;1.48;;;;;;;33.03;21.47;102677.47;5046493;28;19912;-63
2022/08/06 10:46:09;;;;;;;7.60;1.70;;;;;;;32.88;21.64;102678.41;5044392;28;20353;-65
2022/08/06 10:48:36;;;;;;;5.13;1.60;;;;;;;33.17;21.33;102671.09;5046889;28;20415;-66
2022/08/06 10:51:07;;;;;;;3.28;1.60;;;;;;;32.56;21.23;102676.63;5043405;28;20287;-68
2022/08/06 10:53:34;;;;;;;4.93;1.50;;;;;;;31.91;22.16;102676.84;5041972;28;20037;-66
2022/08/06 10:56:02;;;;;;;3.90;1.50;;;;;;;32.06;22.62;102675.06;5044225;28;20020;-67
2022/08/06 10:58:30;;;;;;;7.63;1.63;;;;;;;32.74;22.09;102669.22;5043963;28;20021;-68
2022/08/06 11:00:58;;;;;;;6.72;1.88;;;;;;;33.34;21.42;102673.66;5042956;28;20025;-66
2022/08/06 11:03:55;;;;;;;3.85;1.52;;;;;;;33.85;22.31;102681.34;5045381;28;20044;-67
2022/08/06 11:06:47;;;;;;;8.60;1.73;;;;;;;32.93;22.19;102676.28;5042773;28;20120;-61
2022/08/06 11:09:31;;;;;;;6.25;1.80;;;;;;;30.39;23.08;102667.66;5041072;28;20040;-65
2022/08/06 11:12:15;;;;;;;4.50;1.45;;;;;;;30.68;22.69;102666.16;5044499;28;20033;-66
2022/08/06 11:14:43;;;;;;;6.38;1.50;;;;;;;29.68;24.85;102665.72;5040315;28;20044;-66
2022/08/06 11:17:08;;;;;;;4.10;1.60;;;;;;;31.07;22.88;102658.72;5046870;28;20112;-67
2022/08/06 11:19:42;;;;;;;5.53;1.42;;;;;;;32.59;22.32;102662.78;5043496;28;20508;-63
2022/08/06 11:22:08;;;;;;;6.40;1.50;;;;;;;33.81;19.54;102657.00;5039622;28;20030;-67
2022/08/06 11:24:50;;;;;;;6.20;1.60;;;;;;;34.44;20.84;102658.25;5046130;28;20025;-65
2022/08/06 11:27:50;;;;;;;5.75;1.60;;;;;;;34.60;21.35;102659.91;5041438;28;20026;-65
2022/08/06 11:30:16;;;;;;;5.05;1.60;;;;;;;34.49;18.47;102664.28;5041235;28;20412;-67